Norman, Arkansas
Current Conditions -  °F | °C
As of 8:53 PM on Thursday 27 Nov 2014 (Local Time) from KMWT Reporting Station
Clear Clear  
Wind Chill: 34°   Ceiling: Unl
Heat Index: 34°   Visibility: 10mi
Dew Point: 28°   Wind: 0mph
Humidity: 79%   Direction: NA
Pressure: 30.4"   Gusts: NA
Location:  34.46°N, 93.68°W
Report Text: KMWT 280253Z AUTO 00000KT 10SM CLR 01/M02 A3040 RMK AO2 SLP307 T00111022 55003
Loading
Personal Weather Stations






























Interactive Weather Map New forecast layout! Learn more

10-Day Weather Forecast

Advertisements
Track Severe Weather on mobile